Time;durP1;ratioP1;P1;durP2;ratioP2;P2;SDS_P1;SDS_P2;PMS_P1;PMS_P2;Temp;Humidity;BMP_temperature;BMP_pressure;BME280_temperature;BME280_humidity;BME280_pressure;Samples;Min_cycle;Max_cycle;Signal;HPM_P1;HPM_P2
2022/09/10 00:01:35;;;;;;;;;;;15.70;99.90;;;;;;5033198;28;19925;-83
2022/09/10 00:04:01;;;;;;;;;;;15.70;99.90;;;;;;5050307;28;19922;-83
2022/09/10 00:06:27;;;;;;;;;;;15.70;99.90;;;;;;5033930;28;19929;-83
2022/09/10 00:08:57;;;;;;;;;;;15.70;99.90;;;;;;5033443;28;19975;-83
2022/09/10 00:11:30;;;;;;;;;;;15.70;99.90;;;;;;5033357;28;19921;-83
2022/09/10 00:14:00;;;;;;;;;;;15.60;99.90;;;;;;5034023;28;20330;-83
2022/09/10 00:16:26;;;;;;;;;;;15.60;99.90;;;;;;5034353;28;19975;-83
2022/09/10 00:18:52;;;;;;;;;;;15.70;99.90;;;;;;5033461;28;19925;-83
2022/09/10 00:21:19;;;;;;;;;;;15.70;99.90;;;;;;5033164;28;19987;-83
2022/09/10 00:23:45;;;;;;;;;;;15.70;99.90;;;;;;5033350;28;19921;-83
2022/09/10 00:26:13;;;;;;;;;;;15.60;99.90;;;;;;5033363;28;19921;-83
2022/09/10 00:28:39;;;;;;;;;;;15.60;99.90;;;;;;5033620;28;19921;-83
2022/09/10 00:31:05;;;;;;;;;;;15.60;99.90;;;;;;5033073;28;19922;-83
2022/09/10 00:33:30;;;;;;;;;;;15.60;99.90;;;;;;5033175;28;19920;-83
2022/09/10 00:35:59;;;;;;;;;;;15.60;99.90;;;;;;5049775;28;19921;-83
2022/09/10 00:38:27;;;;;;;;;;;15.60;99.90;;;;;;5032827;28;19921;-83
2022/09/10 00:40:52;;;;;;;;;;;15.60;99.90;;;;;;5032958;28;19927;-83
2022/09/10 00:43:19;;;;;;;;;;;15.60;99.90;;;;;;5033036;28;20024;-83
2022/09/10 00:45:47;;;;;;;;;;;15.60;99.90;;;;;;5032594;28;19925;-83
2022/09/10 00:48:19;;;;;;;;;;;15.60;99.90;;;;;;5049644;28;20004;-83
2022/09/10 00:50:46;;;;;;;;;;;15.60;99.90;;;;;;5049303;28;19928;-83
2022/09/10 00:53:15;;;;;;;;;;;15.60;99.90;;;;;;5031878;28;22252;-83
2022/09/10 00:55:42;;;;;;;;;;;15.60;99.90;;;;;;5049146;28;19921;-83
2022/09/10 00:58:10;;;;;;;;;;;15.60;99.90;;;;;;5033141;28;19935;-83
2022/09/10 01:00:36;;;;;;;;;;;15.60;99.90;;;;;;5032462;28;19932;-83
2022/09/10 01:03:05;;;;;;;;;;;15.60;99.90;;;;;;5032755;28;20438;-83
2022/09/10 01:05:31;;;;;;;;;;;15.60;99.90;;;;;;5032628;28;19928;-83
2022/09/10 01:07:57;;;;;;;;;;;15.60;99.90;;;;;;5033583;28;19928;-83
2022/09/10 01:10:26;;;;;;;;;;;15.60;99.90;;;;;;5032577;28;19928;-83
2022/09/10 01:13:16;;;;;;;;;;;15.60;99.90;;;;;;5032069;28;19921;-83
2022/09/10 01:15:41;;;;;;;;;;;15.60;99.90;;;;;;5032222;28;19921;-82
2022/09/10 01:18:12;;;;;;;;;;;15.60;99.90;;;;;;5032350;28;19967;-83
2022/09/10 01:20:46;;;;;;;;;;;15.60;99.90;;;;;;5032243;28;19929;-83
2022/09/10 01:23:16;;;;;;;;;;;15.70;99.90;;;;;;5031786;28;19921;-83
2022/09/10 01:26:06;;;;;;;;;;;15.60;99.90;;;;;;5032137;28;19921;-83
2022/09/10 01:28:31;;;;;;;;;;;15.70;99.90;;;;;;5033626;28;19928;-83
2022/09/10 01:31:01;;;;;;;;;;;15.70;99.90;;;;;;5031655;28;19921;-82
2022/09/10 01:33:40;;;;;;;;;;;15.70;99.90;;;;;;5033478;28;20025;-83
2022/09/10 01:36:12;;;;;;;;;;;15.70;99.90;;;;;;5048985;28;19921;-83
2022/09/10 01:38:40;;;;;;;;;;;15.60;99.90;;;;;;5031797;28;19999;-83
2022/09/10 01:41:06;;;;;;;;;;;15.70;99.90;;;;;;5033018;28;19925;-83
2022/09/10 01:43:32;;;;;;;;;;;15.70;99.90;;;;;;5048572;28;19928;-83
2022/09/10 01:46:03;;;;;;;;;;;15.70;99.90;;;;;;5032860;28;19921;-83
2022/09/10 01:48:48;;;;;;;;;;;15.70;99.90;;;;;;5031598;28;19925;-83
2022/09/10 01:51:23;;;;;;;;;;;15.70;99.90;;;;;;5031737;28;20349;-83
2022/09/10 01:54:05;;;;;;;;;;;15.70;99.90;;;;;;5048180;28;19921;-83
2022/09/10 01:56:36;;;;;;;;;;;15.70;99.90;;;;;;5032671;28;20448;-83
2022/09/10 01:59:16;;;;;;;;;;;15.70;99.90;;;;;;5032945;28;19921;-83
2022/09/10 02:01:46;;;;;;;;;;;15.70;99.90;;;;;;5031278;28;19925;-83
2022/09/10 02:04:13;;;;;;;;;;;15.70;99.90;;;;;;5048193;28;19998;-83
2022/09/10 02:06:41;;;;;;;;;;;15.70;99.90;;;;;;5032528;28;19925;-83
2022/09/10 02:09:07;;;;;;;;;;;15.70;99.90;;;;;;5015169;28;19922;-83
2022/09/10 02:11:43;;;;;;;;;;;15.70;99.90;;;;;;5032642;28;19925;-83
2022/09/10 02:14:09;;;;;;;;;;;15.70;99.90;;;;;;5031152;28;19928;-83
2022/09/10 02:16:36;;;;;;;;;;;15.70;99.90;;;;;;5031208;28;19921;-83
2022/09/10 02:19:02;;;;;;;;;;;15.70;99.90;;;;;;5031283;28;20055;-83
2022/09/10 02:21:28;;;;;;;;;;;15.70;99.90;;;;;;5030649;28;19984;-83
2022/09/10 02:23:58;;;;;;;;;;;15.70;99.90;;;;;;5030935;28;19998;-83
2022/09/10 02:26:24;;;;;;;;;;;15.70;99.90;;;;;;5031441;28;20015;-83
2022/09/10 02:28:50;;;;;;;;;;;15.70;99.90;;;;;;5031074;28;20505;-83
2022/09/10 02:31:17;;;;;;;;;;;15.70;99.90;;;;;;5031016;28;19921;-83
2022/09/10 02:33:43;;;;;;;;;;;15.70;99.90;;;;;;5031251;28;19936;-83
2022/09/10 02:36:08;;;;;;;;;;;15.70;99.90;;;;;;5047727;28;19924;-83
2022/09/10 02:38:34;;;;;;;;;;;15.70;99.90;;;;;;5030850;28;20608;-82
2022/09/10 02:40:59;;;;;;;;;;;15.70;99.90;;;;;;5047194;28;19951;-83
2022/09/10 02:43:25;;;;;;;;;;;15.70;99.90;;;;;;5031280;28;20297;-83
2022/09/10 02:45:54;;;;;;;;;;;15.70;99.90;;;;;;5047203;28;19928;-83
2022/09/10 02:48:20;;;;;;;;;;;15.70;99.90;;;;;;5031028;28;19921;-83
2022/09/10 02:50:45;;;;;;;;;;;15.70;99.90;;;;;;5047462;28;19947;-83
2022/09/10 02:53:12;;;;;;;;;;;15.70;99.90;;;;;;5047085;28;20406;-83
2022/09/10 02:55:37;;;;;;;;;;;15.70;99.90;;;;;;5030760;28;19921;-83
2022/09/10 02:58:03;;;;;;;;;;;15.70;99.90;;;;;;5030807;28;19924;-83
2022/09/10 03:00:30;;;;;;;;;;;15.70;99.90;;;;;;5014015;28;19925;-83
2022/09/10 03:02:56;;;;;;;;;;;15.70;99.90;;;;;;5030746;28;19933;-83
2022/09/10 03:05:21;;;;;;;;;;;15.70;99.90;;;;;;5014116;28;19921;-83
2022/09/10 03:07:47;;;;;;;;;;;15.60;99.90;;;;;;5047396;28;20357;-83
2022/09/10 03:10:12;;;;;;;;;;;15.70;99.90;;;;;;5047848;28;19928;-83
2022/09/10 03:12:38;;;;;;;;;;;15.70;99.90;;;;;;5047062;28;20275;-83
2022/09/10 03:15:03;;;;;;;;;;;15.70;99.90;;;;;;5047028;28;20016;-83
2022/09/10 03:17:29;;;;;;;;;;;15.70;99.90;;;;;;5030562;28;20493;-83
2022/09/10 03:19:54;;;;;;;;;;;15.70;99.90;;;;;;5047001;28;20328;-83
2022/09/10 03:22:20;;;;;;;;;;;15.70;99.90;;;;;;5031627;28;20015;-83
2022/09/10 03:24:46;;;;;;;;;;;15.70;99.90;;;;;;5030452;28;19922;-83
2022/09/10 03:27:14;;;;;;;;;;;15.70;99.90;;;;;;5031862;28;19927;-83
2022/09/10 03:29:40;;;;;;;;;;;15.70;99.90;;;;;;5030466;28;20029;-83
2022/09/10 03:32:05;;;;;;;;;;;15.70;99.90;;;;;;5046828;28;20434;-83
2022/09/10 03:34:31;;;;;;;;;;;15.70;99.90;;;;;;5030786;28;19927;-83
2022/09/10 03:36:56;;;;;;;;;;;15.70;99.90;;;;;;5050887;28;20291;-83
2022/09/10 03:39:22;;;;;;;;;;;15.70;99.90;;;;;;5051007;28;19925;-82
2022/09/10 03:41:47;;;;;;;;;;;15.60;99.90;;;;;;5017600;28;19925;-83
2022/09/10 03:44:13;;;;;;;;;;;15.60;99.90;;;;;;5034263;28;19925;-83
2022/09/10 03:46:40;;;;;;;;;;;15.70;99.90;;;;;;5035377;28;20382;-83
2022/09/10 03:49:05;;;;;;;;;;;15.70;99.90;;;;;;5050484;28;19921;-83
2022/09/10 03:51:32;;;;;;;;;;;15.70;99.90;;;;;;5033487;28;19927;-83
2022/09/10 03:53:58;;;;;;;;;;;15.70;99.90;;;;;;5017374;28;19921;-83
2022/09/10 03:56:24;;;;;;;;;;;15.70;99.90;;;;;;5035159;28;20472;-83
2022/09/10 03:58:50;;;;;;;;;;;15.70;99.90;;;;;;5033748;28;19921;-83
2022/09/10 04:01:17;;;;;;;;;;;15.70;99.90;;;;;;5050278;28;19933;-83
2022/09/10 04:03:42;;;;;;;;;;;15.70;99.90;;;;;;5034983;28;19921;-83
2022/09/10 04:06:09;;;;;;;;;;;15.70;99.90;;;;;;5050343;28;19928;-83
2022/09/10 04:08:34;;;;;;;;;;;15.70;99.90;;;;;;5033745;28;20379;-82
2022/09/10 04:11:00;;;;;;;;;;;15.70;99.90;;;;;;5050057;28;19948;-83
2022/09/10 04:13:26;;;;;;;;;;;15.70;99.90;;;;;;5033492;28;19921;-83
2022/09/10 04:15:54;;;;;;;;;;;15.70;99.90;;;;;;5017021;28;19966;-83
2022/09/10 04:18:19;;;;;;;;;;;15.70;99.90;;;;;;5016851;28;19921;-83
2022/09/10 04:20:46;;;;;;;;;;;15.70;99.90;;;;;;5033204;28;19952;-83
2022/09/10 04:23:11;;;;;;;;;;;15.70;99.90;;;;;;5033329;28;19921;-83
2022/09/10 04:25:37;;;;;;;;;;;15.70;99.90;;;;;;5033149;28;19966;-83
2022/09/10 04:28:02;;;;;;;;;;;15.70;99.90;;;;;;5033151;28;19936;-83
2022/09/10 04:30:28;;;;;;;;;;;15.70;99.90;;;;;;5016811;28;19921;-83
2022/09/10 04:32:53;;;;;;;;;;;15.70;99.90;;;;;;5049403;28;19931;-83
2022/09/10 04:35:19;;;;;;;;;;;15.70;99.90;;;;;;5033010;28;19928;-83
2022/09/10 04:37:44;;;;;;;;;;;15.80;99.90;;;;;;5016646;28;19921;-83
2022/09/10 04:40:10;;;;;;;;;;;15.70;99.90;;;;;;5016622;28;19925;-83
2022/09/10 04:42:35;;;;;;;;;;;15.80;99.90;;;;;;5016449;28;19925;-83
2022/09/10 04:45:01;;;;;;;;;;;15.70;99.90;;;;;;5049600;28;20397;-83
2022/09/10 04:47:26;;;;;;;;;;;15.80;99.90;;;;;;5032385;28;19926;-83
2022/09/10 04:49:52;;;;;;;;;;;15.80;99.90;;;;;;5049548;28;19928;-83
2022/09/10 04:52:19;;;;;;;;;;;15.80;99.90;;;;;;5032685;28;19922;-83
2022/09/10 04:54:44;;;;;;;;;;;15.70;99.90;;;;;;5033172;28;19987;-83
2022/09/10 04:57:10;;;;;;;;;;;15.80;99.90;;;;;;5032833;28;20379;-83
2022/09/10 04:59:36;;;;;;;;;;;15.80;99.90;;;;;;5032752;28;20472;-83
2022/09/10 05:02:02;;;;;;;;;;;15.80;99.90;;;;;;5032354;28;19928;-83
2022/09/10 05:04:28;;;;;;;;;;;15.80;99.90;;;;;;5049071;28;20310;-82
2022/09/10 05:06:53;;;;;;;;;;;15.80;99.90;;;;;;5049517;28;19951;-83
2022/09/10 05:09:19;;;;;;;;;;;15.80;99.90;;;;;;5016449;28;19929;-83
2022/09/10 05:11:45;;;;;;;;;;;15.80;99.90;;;;;;5032043;28;19928;-83
2022/09/10 05:14:11;;;;;;;;;;;15.80;99.90;;;;;;5049193;28;19960;-83
2022/09/10 05:16:37;;;;;;;;;;;15.80;99.90;;;;;;5031789;28;19964;-83
2022/09/10 05:19:02;;;;;;;;;;;15.80;99.90;;;;;;5032311;28;19921;-82
2022/09/10 05:21:30;;;;;;;;;;;15.80;99.90;;;;;;5031975;28;19925;-83
2022/09/10 05:23:55;;;;;;;;;;;15.80;99.90;;;;;;5048933;28;20402;-83
2022/09/10 05:26:21;;;;;;;;;;;15.80;99.90;;;;;;5015775;28;19971;-83
2022/09/10 05:28:46;;;;;;;;;;;15.80;99.90;;;;;;5033405;28;19956;-83
2022/09/10 05:31:12;;;;;;;;;;;15.80;99.90;;;;;;5033007;28;19964;-83
2022/09/10 05:33:39;;;;;;;;;;;15.80;99.90;;;;;;5032118;28;19921;-83
2022/09/10 05:36:08;;;;;;;;;;;15.80;99.90;;;;;;5048757;28;19921;-83
2022/09/10 05:38:34;;;;;;;;;;;15.80;99.90;;;;;;5048968;28;20071;-83
2022/09/10 05:40:59;;;;;;;;;;;15.90;99.90;;;;;;5031703;28;20382;-83
2022/09/10 05:43:26;;;;;;;;;;;15.80;99.90;;;;;;5048436;28;19921;-83
2022/09/10 05:45:51;;;;;;;;;;;15.80;99.90;;;;;;5031633;28;19956;-83
2022/09/10 05:48:17;;;;;;;;;;;15.90;99.90;;;;;;5048777;28;20307;-83
2022/09/10 05:50:44;;;;;;;;;;;15.90;99.90;;;;;;5031380;28;19921;-83
2022/09/10 05:53:09;;;;;;;;;;;15.90;99.90;;;;;;5031654;28;20012;-83
2022/09/10 05:55:35;;;;;;;;;;;15.90;99.90;;;;;;5048143;28;20410;-83
2022/09/10 05:58:01;;;;;;;;;;;15.90;99.90;;;;;;5047400;28;19928;-83
2022/09/10 06:00:27;;;;;;;;;;;15.90;99.90;;;;;;5031336;28;20275;-83
2022/09/10 06:02:53;;;;;;;;;;;15.90;99.90;;;;;;5047811;28;19921;-83
2022/09/10 06:05:21;;;;;;;;;;;15.90;99.90;;;;;;5031632;28;20297;-83
2022/09/10 06:07:47;;;;;;;;;;;16.00;99.90;;;;;;5031431;28;20287;-83
2022/09/10 06:10:13;;;;;;;;;;;15.90;99.90;;;;;;5031488;28;20375;-83
2022/09/10 06:12:39;;;;;;;;;;;16.00;99.90;;;;;;5014441;28;20305;-83
2022/09/10 06:15:06;;;;;;;;;;;16.00;99.90;;;;;;5014768;28;20004;-83
2022/09/10 06:17:31;;;;;;;;;;;16.00;99.90;;;;;;5014473;28;19927;-83
2022/09/10 06:19:57;;;;;;;;;;;16.10;99.90;;;;;;5047873;28;20297;-83
2022/09/10 06:22:22;;;;;;;;;;;16.00;99.90;;;;;;5047428;28;20497;-83
2022/09/10 06:24:49;;;;;;;;;;;16.10;99.90;;;;;;5047592;28;19922;-83
2022/09/10 06:27:15;;;;;;;;;;;16.10;99.90;;;;;;5030892;28;19972;-83
2022/09/10 06:29:40;;;;;;;;;;;16.10;99.90;;;;;;5030999;28;19932;-83
2022/09/10 06:32:06;;;;;;;;;;;16.20;99.90;;;;;;5032380;28;19921;-83
2022/09/10 06:34:31;;;;;;;;;;;16.20;99.90;;;;;;5031924;28;20011;-83
2022/09/10 06:36:57;;;;;;;;;;;16.20;99.90;;;;;;5030706;28;20341;-83
2022/09/10 06:39:22;;;;;;;;;;;16.20;99.90;;;;;;5029424;28;20395;-83
2022/09/10 06:41:48;;;;;;;;;;;16.30;99.90;;;;;;5030425;28;19925;-83
2022/09/10 06:44:13;;;;;;;;;;;16.30;99.90;;;;;;5029956;28;19925;-83
2022/09/10 06:46:39;;;;;;;;;;;16.30;99.90;;;;;;5046072;28;20379;-83
2022/09/10 06:49:05;;;;;;;;;;;16.30;99.90;;;;;;5046281;28;20003;-83
2022/09/10 06:51:31;;;;;;;;;;;16.30;99.90;;;;;;5029537;28;20386;-83
2022/09/10 06:53:56;;;;;;;;;;;16.30;99.90;;;;;;5031014;28;19921;-83
2022/09/10 06:56:22;;;;;;;;;;;16.40;99.90;;;;;;5030640;28;19971;-83
2022/09/10 06:58:48;;;;;;;;;;;16.40;99.90;;;;;;5047482;28;19921;-83
2022/09/10 07:01:14;;;;;;;;;;;16.40;99.90;;;;;;5030485;28;19929;-83
2022/09/10 07:03:41;;;;;;;;;;;16.40;99.90;;;;;;5014217;28;19921;-83
2022/09/10 07:06:09;;;;;;;;;;;16.40;99.90;;;;;;5031081;28;19927;-83
2022/09/10 07:08:35;;;;;;;;;;;16.50;99.90;;;;;;5014771;28;19956;-83
2022/09/10 07:11:05;;;;;;;;;;;16.40;99.90;;;;;;5032833;28;19921;-83
2022/09/10 07:13:30;;;;;;;;;;;16.50;99.90;;;;;;5031128;28;19979;-83
2022/09/10 07:15:56;;;;;;;;;;;16.50;99.90;;;;;;5030927;28;19983;-83
2022/09/10 07:18:22;;;;;;;;;;;16.50;99.90;;;;;;5031045;28;20015;-83
2022/09/10 07:20:47;;;;;;;;;;;16.60;99.90;;;;;;5031023;28;19929;-83
2022/09/10 07:23:14;;;;;;;;;;;16.60;99.90;;;;;;5030991;28;19929;-83
2022/09/10 07:25:40;;;;;;;;;;;16.60;99.90;;;;;;5030712;28;19991;-83
2022/09/10 07:28:11;;;;;;;;;;;16.70;99.90;;;;;;5030791;28;20399;-83
2022/09/10 07:30:38;;;;;;;;;;;16.70;99.90;;;;;;5031103;28;19964;-83
2022/09/10 07:33:04;;;;;;;;;;;16.70;99.90;;;;;;5030423;28;19929;-83
2022/09/10 07:35:30;;;;;;;;;;;16.80;99.90;;;;;;5014311;28;19936;-83
2022/09/10 07:37:55;;;;;;;;;;;16.80;99.90;;;;;;5031171;28;19925;-83
2022/09/10 07:40:22;;;;;;;;;;;16.80;99.90;;;;;;5030449;28;20047;-83
2022/09/10 07:42:47;;;;;;;;;;;16.80;99.90;;;;;;5033456;28;20386;-83
2022/09/10 07:45:15;;;;;;;;;;;16.90;99.90;;;;;;5034399;28;19921;-83
2022/09/10 07:47:41;;;;;;;;;;;16.90;99.90;;;;;;5035197;28;20015;-83
2022/09/10 07:50:07;;;;;;;;;;;16.90;99.90;;;;;;5050912;28;20003;-83
2022/09/10 07:52:32;;;;;;;;;;;17.00;99.90;;;;;;5033817;28;20387;-83
2022/09/10 07:54:59;;;;;;;;;;;17.00;99.90;;;;;;5033968;28;19925;-83
2022/09/10 07:57:25;;;;;;;;;;;17.00;99.90;;;;;;5033609;28;19927;-83
2022/09/10 07:59:50;;;;;;;;;;;17.00;99.90;;;;;;5036644;28;20007;-83
2022/09/10 08:02:16;;;;;;;;;;;17.10;99.90;;;;;;5036039;28;19921;-83
2022/09/10 08:04:41;;;;;;;;;;;17.20;99.90;;;;;;5034142;28;20021;-83
2022/09/10 08:07:07;;;;;;;;;;;17.20;99.90;;;;;;5041360;28;19929;-83
2022/09/10 08:09:32;;;;;;;;;;;17.30;99.90;;;;;;5033804;28;19925;-83
2022/09/10 08:11:58;;;;;;;;;;;17.30;99.90;;;;;;5028024;28;20401;-83
2022/09/10 08:14:24;;;;;;;;;;;17.30;99.90;;;;;;5076373;28;19925;-83
2022/09/10 08:16:49;;;;;;;;;;;17.30;99.90;;;;;;5060358;28;20345;-84
2022/09/10 08:19:16;;;;;;;;;;;17.40;99.90;;;;;;5059023;28;19929;-83
2022/09/10 08:21:43;;;;;;;;;;;17.40;99.90;;;;;;5022467;28;19925;-83
2022/09/10 08:24:09;;;;;;;;;;;17.50;99.90;;;;;;5049817;28;19921;-83
2022/09/10 08:26:34;;;;;;;;;;;17.50;99.90;;;;;;5016903;28;20276;-84
2022/09/10 08:29:01;;;;;;;;;;;17.50;99.90;;;;;;5017143;28;19928;-84
2022/09/10 08:31:27;;;;;;;;;;;17.60;99.90;;;;;;5032900;28;19995;-83
2022/09/10 08:33:53;;;;;;;;;;;17.70;99.90;;;;;;5050285;28;19964;-83
2022/09/10 08:36:20;;;;;;;;;;;17.70;99.90;;;;;;5050342;28;19929;-83
2022/09/10 08:38:46;;;;;;;;;;;17.70;99.90;;;;;;5032971;28;20007;-83
2022/09/10 08:41:16;;;;;;;;;;;17.80;99.90;;;;;;5049238;28;20075;-83
2022/09/10 08:43:51;;;;;;;;;;;17.80;99.90;;;;;;5033069;28;19921;-83
2022/09/10 08:46:25;;;;;;;;;;;17.90;99.90;;;;;;5032706;28;19928;-83
2022/09/10 08:49:06;;;;;;;;;;;17.90;99.90;;;;;;5033038;28;20662;-83
2022/09/10 08:51:36;;;;;;;;;;;18.00;99.90;;;;;;5032578;28;19928;-83
2022/09/10 08:54:06;;;;;;;;;;;18.00;99.90;;;;;;5033106;28;20405;-84
2022/09/10 08:56:31;;;;;;;;;;;18.10;99.90;;;;;;5032820;28;20305;-83
2022/09/10 08:59:09;;;;;;;;;;;18.10;99.90;;;;;;5034124;28;20012;-83
2022/09/10 09:01:39;;;;;;;;;;;18.10;99.90;;;;;;5032119;28;19936;-83
2022/09/10 09:04:11;;;;;;;;;;;18.20;99.90;;;;;;5033049;28;20364;-83
2022/09/10 09:06:40;;;;;;;;;;;18.20;99.90;;;;;;5051701;28;20405;-83
2022/09/10 09:09:05;;;;;;;;;;;18.20;99.90;;;;;;5052243;28;19967;-83
2022/09/10 09:11:50;;;;;;;;;;;18.30;99.90;;;;;;5032280;28;19925;-83
2022/09/10 09:14:34;;;;;;;;;;;18.30;99.90;;;;;;5046066;28;19994;-83
2022/09/10 09:17:10;;;;;;;;;;;18.30;99.90;;;;;;5051281;28;20275;-84
2022/09/10 09:19:48;;;;;;;;;;;18.40;99.90;;;;;;5052684;28;19928;-83
2022/09/10 09:22:14;;;;;;;;;;;18.30;99.90;;;;;;5051497;28;19925;-83
2022/09/10 09:24:43;;;;;;;;;;;18.40;99.90;;;;;;5051145;28;19921;-83
2022/09/10 09:27:14;;;;;;;;;;;18.40;99.90;;;;;;5051080;28;19928;-83
2022/09/10 09:29:43;;;;;;;;;;;18.40;99.90;;;;;;5051945;28;19921;-84
2022/09/10 09:32:11;;;;;;;;;;;18.50;99.90;;;;;;5033838;28;20412;-83
2022/09/10 09:34:45;;;;;;;;;;;18.60;99.90;;;;;;5035072;28;19976;-83
2022/09/10 09:37:16;;;;;;;;;;;18.60;99.90;;;;;;5051102;28;19921;-83
2022/09/10 09:39:47;;;;;;;;;;;18.70;99.90;;;;;;5034781;28;19920;-83
2022/09/10 09:42:20;;;;;;;;;;;18.80;99.90;;;;;;5051382;28;19924;-83
2022/09/10 09:44:58;;;;;;;;;;;18.90;99.90;;;;;;5051294;28;19927;-83
2022/09/10 09:47:23;;;;;;;;;;;18.90;99.90;;;;;;5051000;28;19921;-83
2022/09/10 09:49:48;;;;;;;;;;;19.00;99.90;;;;;;5034444;28;19928;-83
2022/09/10 09:52:22;;;;;;;;;;;19.10;99.90;;;;;;5050785;28;19925;-83
2022/09/10 09:54:49;;;;;;;;;;;19.20;99.90;;;;;;5034264;28;20294;-83
2022/09/10 09:57:15;;;;;;;;;;;19.30;99.90;;;;;;5051465;28;19924;-83
2022/09/10 09:59:42;;;;;;;;;;;19.40;99.90;;;;;;5034478;28;19921;-84
2022/09/10 10:02:12;;;;;;;;;;;19.40;99.90;;;;;;5050468;28;19970;-83
2022/09/10 10:04:40;;;;;;;;;;;19.40;99.90;;;;;;5034207;28;20008;-83
2022/09/10 10:07:05;;;;;;;;;;;19.50;99.90;;;;;;5050876;28;19924;-83
2022/09/10 10:09:32;;;;;;;;;;;19.60;99.90;;;;;;5050745;28;19974;-84
2022/09/10 10:11:59;;;;;;;;;;;19.60;99.90;;;;;;5050496;28;19934;-83
2022/09/10 10:14:34;;;;;;;;;;;19.70;99.90;;;;;;5051157;28;20298;-84
2022/09/10 10:16:59;;;;;;;;;;;19.70;99.90;;;;;;5033812;28;19920;-84
2022/09/10 10:19:39;;;;;;;;;;;19.90;99.90;;;;;;5050922;28;19947;-83
2022/09/10 10:22:13;;;;;;;;;;;19.90;99.90;;;;;;5033791;28;19991;-83
2022/09/10 10:24:41;;;;;;;;;;;20.00;99.90;;;;;;5050226;28;19970;-83
2022/09/10 10:27:16;;;;;;;;;;;20.10;99.90;;;;;;5050963;28;19920;-83
2022/09/10 10:29:49;;;;;;;;;;;20.10;99.90;;;;;;5050446;28;19921;-83
2022/09/10 10:32:15;;;;;;;;;;;20.10;99.90;;;;;;5050308;28;19921;-83
2022/09/10 10:34:44;;;;;;;;;;;20.20;99.90;;;;;;5067182;28;19928;-84
2022/09/10 10:37:26;;;;;;;;;;;20.20;99.90;;;;;;5050459;28;19927;-83
2022/09/10 10:39:55;;;;;;;;;;;20.20;99.90;;;;;;5050768;28;19989;-83
2022/09/10 10:42:29;;;;;;;;;;;20.30;99.90;;;;;;5033331;28;19921;-83
2022/09/10 10:45:04;;;;;;;;;;;20.40;99.90;;;;;;5033401;28;19928;-83
2022/09/10 10:47:39;;;;;;;;;;;20.40;99.90;;;;;;5033573;28;19921;-83
2022/09/10 10:50:25;;;;;;;;;;;20.40;99.90;;;;;;5051596;28;19976;-83
2022/09/10 10:52:50;;;;;;;;;;;20.40;99.90;;;;;;5046746;28;19980;-83
2022/09/10 10:55:22;;;;;;;;;;;20.40;99.90;;;;;;5050217;28;20409;-83
2022/09/10 10:57:50;;;;;;;;;;;20.40;99.90;;;;;;5050249;28;19921;-83
2022/09/10 11:00:17;;;;;;;;;;;20.50;99.90;;;;;;5049830;28;19925;-83
2022/09/10 11:03:05;;;;;;;;;;;20.50;99.90;;;;;;5050049;28;20028;-84
2022/09/10 11:05:40;;;;;;;;;;;20.60;99.90;;;;;;5066283;28;20011;-84
2022/09/10 11:08:26;;;;;;;;;;;20.80;99.90;;;;;;5050272;28;19944;-83
2022/09/10 11:10:56;;;;;;;;;;;20.90;99.90;;;;;;5049838;28;20382;-84
2022/09/10 11:13:51;;;;;;;;;;;20.90;99.90;;;;;;5067155;28;19921;-84
2022/09/10 11:16:25;;;;;;;;;;;21.00;99.90;;;;;;5045242;28;20022;-83
2022/09/10 11:19:01;;;;;;;;;;;21.00;99.90;;;;;;5050148;28;20340;-84
2022/09/10 11:21:28;;;;;;;;;;;21.00;99.90;;;;;;5049613;28;19924;-84
2022/09/10 11:24:00;;;;;;;;;;;21.20;99.90;;;;;;5049959;28;19927;-84
2022/09/10 11:26:32;;;;;;;;;;;21.30;99.90;;;;;;5033313;28;20011;-84
2022/09/10 11:29:06;;;;;;;;;;;21.40;99.90;;;;;;5066982;28;19928;-84
2022/09/10 11:31:39;;;;;;;;;;;21.60;99.90;;;;;;5050638;28;19921;-84
2022/09/10 11:34:15;;;;;;;;;;;21.70;99.90;;;;;;5050294;28;19925;-84
2022/09/10 11:36:48;;;;;;;;;;;21.80;99.90;;;;;;5050143;28;19928;-84
2022/09/10 11:39:16;;;;;;;;;;;21.90;99.90;;;;;;5050271;28;19920;-84
2022/09/10 11:41:42;;;;;;;;;;;22.10;99.90;;;;;;5033306;28;20015;-84
2022/09/10 11:44:14;;;;;;;;;;;22.20;99.90;;;;;;5066844;28;20013;-84
2022/09/10 11:46:42;;;;;;;;;;;22.30;99.90;;;;;;5050066;28;19934;-84
2022/09/10 11:49:14;;;;;;;;;;;22.40;99.90;;;;;;5067196;28;19943;-84
2022/09/10 11:51:40;;;;;;;;;;;22.50;99.90;;;;;;5033394;28;20003;-84
2022/09/10 11:54:13;;;;;;;;;;;22.50;99.90;;;;;;5050222;28;19967;-84
2022/09/10 11:56:49;;;;;;;;;;;22.50;99.90;;;;;;5026621;28;19925;-84
2022/09/10 11:59:20;;;;;;;;;;;22.70;99.90;;;;;;5050365;28;19929;-84
2022/09/10 12:02:05;;;;;;;;;;;22.80;99.90;;;;;;5033802;28;19932;-84
2022/09/10 12:04:37;;;;;;;;;;;22.90;99.90;;;;;;5035099;28;20379;-84
2022/09/10 12:07:24;;;;;;;;;;;23.10;99.90;;;;;;5033445;28;19932;-84
2022/09/10 12:09:56;;;;;;;;;;;23.20;99.90;;;;;;5033797;28;20287;-84
2022/09/10 12:12:29;;;;;;;;;;;23.30;99.90;;;;;;5033421;28;20421;-84
2022/09/10 12:14:55;;;;;;;;;;;23.40;99.90;;;;;;5033416;28;20390;-84
2022/09/10 12:17:29;;;;;;;;;;;23.40;99.90;;;;;;5050210;28;20007;-84
2022/09/10 12:19:56;;;;;;;;;;;23.40;99.90;;;;;;5049967;28;19939;-84
2022/09/10 12:22:27;;;;;;;;;;;23.40;99.90;;;;;;5016521;28;19921;-84
2022/09/10 12:24:53;;;;;;;;;;;23.40;99.90;;;;;;5033242;28;20372;-84
2022/09/10 12:27:19;;;;;;;;;;;23.40;99.90;;;;;;5033196;28;19920;-84
2022/09/10 12:29:45;;;;;;;;;;;23.40;99.90;;;;;;5033570;28;20016;-84
2022/09/10 12:32:24;;;;;;;;;;;23.40;99.90;;;;;;5035445;28;20314;-84
2022/09/10 12:35:10;;;;;;;;;;;23.40;99.90;;;;;;5053611;28;19998;-84
2022/09/10 12:37:35;;;;;;;;;;;23.40;99.90;;;;;;5052632;28;19927;-84
2022/09/10 12:40:36;;;;;;;;;;;23.30;99.90;;;;;;5086720;28;19921;-84
2022/09/10 12:43:22;;;;;;;;;;;23.30;99.90;;;;;;5068562;28;20340;-84
2022/09/10 12:46:15;;;;;;;;;;;23.20;99.90;;;;;;5053956;28;19920;-84
2022/09/10 12:48:47;;;;;;;;;;;23.10;99.90;;;;;;5052411;28;19964;-84
2022/09/10 12:51:19;;;;;;;;;;;23.20;99.90;;;;;;5060009;28;20008;-84
2022/09/10 12:53:48;;;;;;;;;;;23.20;99.90;;;;;;5043287;28;19925;-84
2022/09/10 12:56:28;;;;;;;;;;;23.10;99.90;;;;;;5038975;28;19921;-84
2022/09/10 12:59:13;;;;;;;;;;;23.00;99.90;;;;;;5033010;28;20350;-84
2022/09/10 13:01:45;;;;;;;;;;;23.00;99.90;;;;;;5032265;28;19974;-84
2022/09/10 13:04:19;;;;;;;;;;;23.00;99.90;;;;;;5032757;28;19999;-84
2022/09/10 13:06:46;;;;;;;;;;;23.00;99.90;;;;;;5031492;28;19928;-84
2022/09/10 13:09:22;;;;;;;;;;;23.00;99.90;;;;;;5033946;28;19925;-84
2022/09/10 13:11:50;;;;;;;;;;;22.90;99.90;;;;;;5065518;28;19943;-84
2022/09/10 13:14:19;;;;;;;;;;;22.90;99.90;;;;;;5035130;28;19964;-84
2022/09/10 13:16:45;;;;;;;;;;;22.90;99.90;;;;;;5052022;28;20289;-84
2022/09/10 13:19:14;;;;;;;;;;;22.90;99.90;;;;;;5052174;28;19927;-84
2022/09/10 13:21:39;;;;;;;;;;;22.90;99.90;;;;;;5051264;28;19972;-84
2022/09/10 13:24:23;;;;;;;;;;;22.80;99.90;;;;;;5051785;28;20021;-84
2022/09/10 13:26:51;;;;;;;;;;;22.80;99.90;;;;;;5051719;28;20439;-84
2022/09/10 13:29:33;;;;;;;;;;;22.80;99.90;;;;;;5051718;28;19960;-84
2022/09/10 13:32:01;;;;;;;;;;;22.80;99.90;;;;;;5034488;28;20394;-84
2022/09/10 13:34:50;;;;;;;;;;;22.80;99.90;;;;;;5051467;28;20001;-84
2022/09/10 13:37:36;;;;;;;;;;;22.90;99.90;;;;;;5067711;28;20023;-84
2022/09/10 13:40:01;;;;;;;;;;;23.00;99.90;;;;;;5044046;28;19929;-84
2022/09/10 13:42:42;;;;;;;;;;;23.20;99.90;;;;;;5051345;28;19928;-83
2022/09/10 13:45:19;;;;;;;;;;;23.40;99.90;;;;;;5048750;28;19967;-84
2022/09/10 13:47:48;;;;;;;;;;;24.40;99.90;;;;;;5078420;28;19925;-84
2022/09/10 13:50:16;;;;;;;;;;;26.10;99.90;;;;;;5050972;28;19936;-84
2022/09/10 13:52:44;;;;;;;;;;;26.90;97.90;;;;;;5050895;28;19921;-84
2022/09/10 13:55:19;;;;;;;;;;;26.80;91.10;;;;;;5051566;28;19943;-84
2022/09/10 13:57:47;;;;;;;;;;;26.50;95.20;;;;;;5039819;28;20160;-84
2022/09/10 14:00:16;;;;;;;;;;;26.40;94.50;;;;;;5021900;28;20446;-84
2022/09/10 14:03:07;;;;;;;;;;;26.20;96.50;;;;;;5043244;28;19920;-84
2022/09/10 14:05:45;;;;;;;;;;;26.20;97.70;;;;;;5038732;28;20544;-84
2022/09/10 14:08:29;;;;;;;;;;;26.00;93.30;;;;;;5048740;28;19963;-84
2022/09/10 14:11:05;;;;;;;;;;;25.90;93.90;;;;;;5050628;28;20160;-84
2022/09/10 14:13:41;;;;;;;;;;;25.70;95.20;;;;;;5050678;28;19920;-84
2022/09/10 14:16:09;;;;;;;;;;;25.40;97.80;;;;;;5051959;28;19921;-84
2022/09/10 14:18:41;;;;;;;;;;;25.20;98.90;;;;;;5049903;28;19925;-84
2022/09/10 14:21:10;;;;;;;;;;;25.00;99.40;;;;;;5050081;28;19932;-84
2022/09/10 14:23:38;;;;;;;;;;;24.80;99.10;;;;;;5050812;28;20332;-84
2022/09/10 14:26:08;;;;;;;;;;;24.70;99.90;;;;;;5034035;28;19921;-84
2022/09/10 14:28:34;;;;;;;;;;;24.70;99.50;;;;;;5050433;28;19927;-84